Time;durP1;ratioP1;P1;durP2;ratioP2;P2;SDS_P1;SDS_P2;PMS_P1;PMS_P2;Temp;Humidity;BMP_temperature;BMP_pressure;BME280_temperature;BME280_humidity;BME280_pressure;Samples;Min_cycle;Max_cycle;Signal;HPM_P1;HPM_P2
2021/09/30 00:01:10;;;;;;;;;;;;;;;8.03;54.73;101839.13;5012778;28;19960;-77
2021/09/30 00:03:36;;;;;;;;;;;;;;;8.07;54.82;101840.97;5037040;28;19957;-76
2021/09/30 00:06:01;;;;;;;;;;;;;;;8.11;54.70;101842.84;5028942;28;20371;-77
2021/09/30 00:08:27;;;;;;;;;;;;;;;8.07;54.15;101840.09;5029983;28;20015;-76
2021/09/30 00:11:18;;;;;;;;;;;;;;;8.00;54.70;101836.44;5038282;28;19974;-76
2021/09/30 00:35:20;;;;;;;;;;;;;;;7.81;55.02;101845.28;5058969;28;19920;-77
2021/09/30 00:41:12;;;;;;;;;;;;;;;7.88;55.12;101843.75;4973518;28;19926;-77
2021/09/30 00:46:29;;;;;;;;;;;;;;;7.71;54.33;101817.28;5016433;28;20284;-78
2021/09/30 00:51:42;;;;;;;;;;;;;;;7.88;54.61;101849.84;5032903;28;19929;-77
2021/09/30 00:54:40;;;;;;;;;;;;;;;7.83;54.70;101847.06;5021995;28;19933;-77
2021/09/30 02:24:15;;;;;;;;;;;;;;;7.73;56.59;101865.72;5034552;28;20003;-76
2021/09/30 02:29:23;;;;;;;;;;;;;;;7.81;56.62;101868.59;5031522;28;19921;-77
2021/09/30 02:59:12;;;;;;;;;;;;;;;7.94;56.37;101859.53;5040147;28;19928;-76
2021/09/30 03:01:46;;;;;;;;;;;;;;;7.92;56.29;101861.19;5040879;28;19921;-74
2021/09/30 03:04:12;;;;;;;;;;;;;;;7.97;56.44;101864.84;5035911;28;19925;-75
2021/09/30 03:06:39;;;;;;;;;;;;;;;7.95;56.19;101864.78;5039591;28;20051;-75
2021/09/30 03:09:06;;;;;;;;;;;;;;;7.96;56.64;101868.25;5055050;28;19987;-76
2021/09/30 03:11:36;;;;;;;;;;;;;;;7.96;56.40;101863.06;5038228;28;19935;-76
2021/09/30 03:14:03;;;;;;;;;;;;;;;7.97;56.53;101863.13;5055944;28;19948;-77
2021/09/30 03:24:35;;;;;;;;;;;;;;;8.07;56.41;101861.72;5038241;28;20027;-78
2021/09/30 03:27:01;;;;;;;;;;;;;;;8.10;56.34;101861.81;5038885;28;20273;-79
2021/09/30 03:29:27;;;;;;;;;;;;;;;8.09;56.46;101862.66;5020309;28;19920;-79
2021/09/30 03:31:53;;;;;;;;;;;;;;;8.09;56.59;101865.25;5005239;28;19920;-79
2021/09/30 03:34:39;;;;;;;;;;;;;;;8.08;56.44;101867.81;5019259;28;20005;-78
2021/09/30 03:37:05;;;;;;;;;;;;;;;8.09;56.46;101869.56;5031878;28;19967;-77
2021/09/30 03:39:31;;;;;;;;;;;;;;;8.08;56.54;101865.22;5030908;28;19980;-78
2021/09/30 03:41:58;;;;;;;;;;;;;;;8.07;56.43;101866.91;5029859;28;19921;-76
2021/09/30 03:44:31;;;;;;;;;;;;;;;8.09;56.63;101864.38;5015585;28;19944;-76
2021/09/30 03:46:58;;;;;;;;;;;;;;;8.08;56.94;101865.22;5014650;28;19975;-78
2021/09/30 03:49:36;;;;;;;;;;;;;;;8.08;56.76;101867.81;4999748;28;20233;-76
2021/09/30 03:52:14;;;;;;;;;;;;;;;8.08;56.52;101865.22;5033349;28;20043;-76
2021/09/30 03:54:52;;;;;;;;;;;;;;;8.11;56.76;101865.31;5047395;28;21318;-81
2021/09/30 03:59:46;;;;;;;;;;;;;;;8.10;56.89;101867.00;5051453;28;20059;-76
2021/09/30 04:02:21;;;;;;;;;;;;;;;8.10;56.84;101869.59;5035353;28;20078;-77
2021/09/30 04:04:47;;;;;;;;;;;;;;;8.10;56.84;101876.53;5038731;28;19985;-78
2021/09/30 04:07:13;;;;;;;;;;;;;;;8.12;56.98;101880.06;5034320;28;19920;-78
2021/09/30 04:09:39;;;;;;;;;;;;;;;8.14;57.09;101875.81;5034260;28;19951;-77
2021/09/30 04:12:07;;;;;;;;;;;;;;;8.17;56.71;101875.88;5018065;28;20383;-78
2021/09/30 04:14:33;;;;;;;;;;;;;;;8.20;56.93;101877.72;5027156;28;19921;-76
2021/09/30 04:16:59;;;;;;;;;;;;;;;8.14;57.03;101868.88;5018921;28;20793;-78
2021/09/30 04:19:25;;;;;;;;;;;;;;;8.11;56.97;101879.16;5038497;28;19921;-77
2021/09/30 04:21:51;;;;;;;;;;;;;;;8.05;57.26;101873.78;5036697;28;19975;-78
2021/09/30 04:24:18;;;;;;;;;;;;;;;7.98;57.16;101876.97;5036918;28;19921;-76
2021/09/30 04:26:44;;;;;;;;;;;;;;;7.95;57.07;101876.88;5019925;28;20428;-79
2021/09/30 04:29:10;;;;;;;;;;;;;;;7.97;57.44;101880.41;5036578;28;20071;-77
2021/09/30 04:31:36;;;;;;;;;;;;;;;8.05;57.33;101875.47;5017383;28;19964;-78
2021/09/30 04:34:02;;;;;;;;;;;;;;;8.09;57.20;101886.00;5002295;28;20446;-77
2021/09/30 04:36:28;;;;;;;;;;;;;;;8.06;56.88;101879.84;5044557;28;19925;-78
2021/09/30 04:38:55;;;;;;;;;;;;;;;8.09;57.50;101886.00;5032908;28;19984;-79
2021/09/30 04:41:21;;;;;;;;;;;;;;;8.07;57.09;101895.44;5005013;28;19995;-79
2021/09/30 04:43:49;;;;;;;;;;;;;;;8.09;57.52;101895.50;5047156;28;19905;-78
2021/09/30 04:46:16;;;;;;;;;;;;;;;8.01;57.04;101891.75;5056670;28;19921;-78
2021/09/30 04:48:54;;;;;;;;;;;;;;;8.03;57.34;101888.41;5044268;28;20403;-78
2021/09/30 04:51:19;;;;;;;;;;;;;;;8.09;57.41;101885.13;5038394;28;19929;-77
2021/09/30 04:53:45;;;;;;;;;;;;;;;8.14;57.19;101891.38;5050836;28;19921;-78
2021/09/30 04:56:12;;;;;;;;;;;;;;;8.19;57.18;101892.38;5000981;28;19921;-76
2021/09/30 04:58:42;;;;;;;;;;;;;;;8.19;56.85;101896.69;5015468;28;19921;-76
2021/09/30 05:01:07;;;;;;;;;;;;;;;8.13;57.33;101890.47;5038873;28;20047;-78
2021/09/30 05:03:36;;;;;;;;;;;;;;;8.14;56.95;101894.81;5024053;28;20384;-77
2021/09/30 05:06:02;;;;;;;;;;;;;;;8.07;57.42;101892.84;5013785;28;19920;-78
2021/09/30 05:08:32;;;;;;;;;;;;;;;8.11;57.50;101894.72;5026053;28;20018;-76
2021/09/30 05:10:58;;;;;;;;;;;;;;;8.17;57.12;101900.94;5048399;28;19921;-77
2021/09/30 05:13:35;;;;;;;;;;;;;;;8.14;57.15;101897.41;5014617;28;19975;-79
2021/09/30 05:16:01;;;;;;;;;;;;;;;8.20;57.37;101901.06;5000432;28;20637;-77
2021/09/30 05:18:54;;;;;;;;;;;;;;;8.27;57.36;101903.91;4998573;28;19925;-78
2021/09/30 05:21:22;;;;;;;;;;;;;;;8.34;57.21;101897.22;5031089;28;19928;-78
2021/09/30 05:23:48;;;;;;;;;;;;;;;8.37;56.82;101905.09;5002275;28;20498;-78
2021/09/30 05:26:14;;;;;;;;;;;;;;;8.40;57.19;101896.53;5054671;28;19956;-77
2021/09/30 05:28:40;;;;;;;;;;;;;;;8.33;56.02;101911.00;5051630;28;19925;-78
2021/09/30 05:31:06;;;;;;;;;;;;;;;8.19;57.34;101901.88;5042516;28;19921;-77
2021/09/30 05:33:50;;;;;;;;;;;;;;;8.20;57.17;101903.66;5035449;28;19956;-78
2021/09/30 05:36:15;;;;;;;;;;;;;;;8.26;57.26;101899.56;5044174;28;19960;-80
2021/09/30 05:38:44;;;;;;;;;;;;;;;8.36;57.18;101900.75;5036630;28;19932;-78
2021/09/30 05:41:09;;;;;;;;;;;;;;;8.41;57.16;101904.38;5016387;28;19932;-78
2021/09/30 05:43:38;;;;;;;;;;;;;;;8.44;56.83;101903.59;5038985;28;19949;-78
2021/09/30 05:46:04;;;;;;;;;;;;;;;8.45;56.72;101900.16;5031527;28;19924;-79
2021/09/30 05:48:30;;;;;;;;;;;;;;;8.52;56.85;101906.47;5016139;28;19925;-78
2021/09/30 05:50:57;;;;;;;;;;;;;;;8.53;56.93;101903.94;5042228;28;19920;-77
2021/09/30 05:53:49;;;;;;;;;;;;;;;8.57;56.63;101899.72;5018388;28;20373;-77
2021/09/30 05:56:28;;;;;;;;;;;;;;;8.61;56.06;101908.50;5040736;28;19927;-77
2021/09/30 05:58:53;;;;;;;;;;;;;;;8.51;56.65;101904.69;5033305;28;19927;-80
2021/09/30 06:01:47;;;;;;;;;;;;;;;8.52;56.79;101901.28;5001721;28;19925;-78
2021/09/30 06:12:21;;;;;;;;;;;;;;;8.77;56.46;101902.97;5031734;28;20313;-77
2021/09/30 06:14:47;;;;;;;;;;;;;;;8.78;56.23;101893.47;5029979;28;20384;-79
2021/09/30 06:17:12;;;;;;;;;;;;;;;8.82;56.39;101896.22;5031563;28;19964;-76
2021/09/30 06:19:41;;;;;;;;;;;;;;;8.86;56.20;101897.19;5029064;28;20363;-77
2021/09/30 06:22:07;;;;;;;;;;;;;;;8.91;55.96;101900.84;5032616;28;20528;-78
2021/09/30 06:24:35;;;;;;;;;;;;;;;8.97;56.09;101906.19;5047657;28;20296;-76
2021/09/30 06:27:02;;;;;;;;;;;;;;;9.02;56.08;101904.63;5049570;28;19921;-79
2021/09/30 06:29:28;;;;;;;;;;;;;;;9.07;55.81;101902.16;5046901;28;20030;-78
2021/09/30 06:31:54;;;;;;;;;;;;;;;9.15;55.50;101899.84;5023572;28;19925;-78
2021/09/30 06:34:55;;;;;;;;;;;;;;;9.24;55.31;101901.81;5033206;28;19921;-77
2021/09/30 06:37:31;;;;;;;;;;;;;;;9.29;55.16;101903.72;5035611;28;19928;-77
2021/09/30 06:39:57;;;;;;;;;;;;;;;9.39;55.30;101896.19;5016962;28;19921;-77
2021/09/30 06:42:23;;;;;;;;;;;;;;;9.44;54.78;101905.91;5033361;28;19921;-77
2021/09/30 06:44:49;;;;;;;;;;;;;;;9.44;54.69;101899.78;5036224;28;19928;-78
2021/09/30 06:47:41;;;;;;;;;;;;;;;9.48;54.85;101899.06;5023964;28;19975;-78
2021/09/30 06:50:15;;;;;;;;;;;;;;;9.49;54.94;101898.22;5051012;28;20402;-78
2021/09/30 06:53:01;;;;;;;;;;;;;;;9.52;54.35;101900.91;5045839;28;19930;-77
2021/09/30 06:56:01;;;;;;;;;;;;;;;9.60;54.62;101899.41;5000055;28;20025;-78
2021/09/30 06:58:46;;;;;;;;;;;;;;;9.63;54.60;101906.41;5033034;28;19921;-78
2021/09/30 07:01:31;;;;;;;;;;;;;;;9.65;54.64;101905.63;5032719;28;20293;-79
2021/09/30 07:04:15;;;;;;;;;;;;;;;9.70;54.11;101904.88;5032720;28;19921;-78
2021/09/30 07:07:02;;;;;;;;;;;;;;;9.70;53.85;101897.97;5032087;28;19944;-77
2021/09/30 07:09:30;;;;;;;;;;;;;;;9.71;54.15;101897.09;5015128;28;19932;-78
2021/09/30 07:11:56;;;;;;;;;;;;;;;9.77;54.13;101893.81;5036381;23;19955;-78
2021/09/30 07:14:22;;;;;;;;;;;;;;;9.88;54.21;101892.38;5031473;28;20373;-78
2021/09/30 07:16:47;;;;;;;;;;;;;;;9.94;54.06;101895.16;5034631;28;19921;-77
2021/09/30 07:19:15;;;;;;;;;;;;;;;10.00;54.28;101897.03;5032200;28;20015;-76
2021/09/30 07:21:41;;;;;;;;;;;;;;;10.04;53.81;101898.88;5028852;28;20067;-78
2021/09/30 07:24:07;;;;;;;;;;;;;;;10.03;53.57;101893.66;5030451;28;19920;-75
2021/09/30 07:26:33;;;;;;;;;;;;;;;10.01;53.61;101898.78;4996273;28;19922;-78
2021/09/30 07:28:59;;;;;;;;;;;;;;;10.05;54.29;101902.34;5029439;28;19947;-78
2021/09/30 07:31:25;;;;;;;;;;;;;;;10.02;53.63;101903.16;5026307;28;19921;-78
2021/09/30 07:33:50;;;;;;;;;;;;;;;10.07;53.95;101904.16;5029116;28;19972;-79
2021/09/30 07:36:17;;;;;;;;;;;;;;;10.17;53.58;101902.69;5026541;28;19925;-77
2021/09/30 07:38:43;;;;;;;;;;;;;;;10.07;53.72;101900.66;5026797;28;19928;-79
2021/09/30 07:41:09;;;;;;;;;;;;;;;10.07;54.03;101903.28;5023756;28;19933;-77
2021/09/30 07:43:38;;;;;;;;;;;;;;;10.14;54.04;101899.13;5042374;28;19979;-78
2021/09/30 07:46:06;;;;;;;;;;;;;;;10.19;54.15;101895.81;5030922;28;19928;-77
2021/09/30 07:48:31;;;;;;;;;;;;;;;10.31;53.87;101897.84;5018456;28;19969;-78
2021/09/30 07:50:57;;;;;;;;;;;;;;;10.40;53.89;101900.72;5030609;28;19927;-78
2021/09/30 07:53:23;;;;;;;;;;;;;;;10.44;53.53;101901.69;5023499;28;20031;-78
2021/09/30 07:55:49;;;;;;;;;;;;;;;10.47;53.25;101890.47;5029216;28;19953;-79
2021/09/30 07:58:14;;;;;;;;;;;;;;;10.47;53.49;101900.88;5023306;28;19921;-78
2021/09/30 08:00:41;;;;;;;;;;;;;;;10.52;53.47;101894.06;5030289;28;19925;-77
2021/09/30 08:03:06;;;;;;;;;;;;;;;10.51;53.55;101894.91;5028493;28;19925;-78
2021/09/30 08:05:35;;;;;;;;;;;;;;;10.55;53.51;101895.00;5022978;28;19948;-77
2021/09/30 08:08:02;;;;;;;;;;;;;;;10.50;53.69;101893.13;5025469;28;20023;-79
2021/09/30 08:10:27;;;;;;;;;;;;;;;10.34;53.38;101900.53;5027633;28;19963;-77
2021/09/30 08:12:54;;;;;;;;;;;;;;;10.23;53.33;101897.66;5010631;28;20408;-76
2021/09/30 08:15:20;;;;;;;;;;;;;;;10.14;52.90;101896.53;5013815;28;20059;-78
2021/09/30 08:17:46;;;;;;;;;;;;;;;10.12;53.89;101901.69;5042561;28;20020;-77
2021/09/30 08:20:12;;;;;;;;;;;;;;;10.13;53.85;101902.59;5024122;28;20395;-77
2021/09/30 08:22:39;;;;;;;;;;;;;;;10.08;53.40;101897.22;5013343;28;19967;-77
2021/09/30 08:25:09;;;;;;;;;;;;;;;10.00;53.52;101904.84;5024499;28;19925;-78
2021/09/30 08:27:35;;;;;;;;;;;;;;;9.97;54.31;101896.09;5026818;28;19929;-78
2021/09/30 08:30:03;;;;;;;;;;;;;;;9.94;54.16;101900.34;4994612;28;19922;-79
2021/09/30 08:32:29;;;;;;;;;;;;;;;10.02;54.23;101899.69;5026458;28;19984;-76
2021/09/30 08:35:13;;;;;;;;;;;;;;;10.03;54.21;101899.72;5028916;28;19963;-79
2021/09/30 08:37:42;;;;;;;;;;;;;;;10.03;53.50;101897.13;5030117;28;19921;-77
2021/09/30 08:40:09;;;;;;;;;;;;;;;10.02;53.59;101895.34;5016883;28;20289;-77
2021/09/30 08:42:39;;;;;;;;;;;;;;;9.95;53.61;101890.81;5027719;28;20269;-77
2021/09/30 08:45:06;;;;;;;;;;;;;;;9.90;53.79;101898.50;5028734;28;20396;-79
2021/09/30 08:47:35;;;;;;;;;;;;;;;9.93;53.71;101902.94;5030657;28;20385;-79
2021/09/30 08:50:01;;;;;;;;;;;;;;;9.97;54.27;101899.53;5033118;28;19980;-79
2021/09/30 08:52:26;;;;;;;;;;;;;;;9.95;53.60;101903.81;4998300;28;20400;-78
2021/09/30 08:54:52;;;;;;;;;;;;;;;9.93;54.01;101897.72;5022749;28;19921;-80
2021/09/30 08:57:18;;;;;;;;;;;;;;;10.00;54.11;101889.22;5038901;28;19933;-78
2021/09/30 08:59:58;;;;;;;;;;;;;;;10.03;54.05;101899.72;5047102;28;19921;-77
2021/09/30 09:02:23;;;;;;;;;;;;;;;10.07;53.64;101898.06;5033708;28;19925;-79
2021/09/30 09:04:59;;;;;;;;;;;;;;;10.03;53.93;101899.72;5051234;28;20392;-80
2021/09/30 09:07:26;;;;;;;;;;;;;;;10.04;53.62;101898.88;5015875;28;19933;-78
2021/09/30 09:09:52;;;;;;;;;;;;;;;9.91;54.01;101902.88;5030918;28;19944;-78
2021/09/30 09:12:19;;;;;;;;;;;;;;;9.90;53.79;101903.69;5026747;28;19925;-77
2021/09/30 09:14:47;;;;;;;;;;;;;;;9.93;53.75;101909.00;5031340;28;20419;-79
2021/09/30 09:17:22;;;;;;;;;;;;;;;9.97;54.11;101903.88;5042959;28;19924;-78
2021/09/30 09:19:49;;;;;;;;;;;;;;;9.94;53.61;101905.56;5028925;28;19964;-78
2021/09/30 09:22:18;;;;;;;;;;;;;;;9.99;54.38;101902.22;5026222;28;20376;-75
2021/09/30 09:25:03;;;;;;;;;;;;;;;9.88;54.04;101913.19;5045563;28;19921;-75
2021/09/30 09:27:54;;;;;;;;;;;;;;;9.76;53.05;101915.44;5031867;28;19925;-73
2021/09/30 09:30:32;;;;;;;;;;;;;;;9.49;53.74;101909.47;5032405;28;19925;-74
2021/09/30 09:33:16;;;;;;;;;;;;;;;9.37;54.79;101913.47;5025252;28;19925;-75
2021/09/30 09:36:09;;;;;;;;;;;;;;;9.48;54.64;101910.34;5030166;28;19937;-75
2021/09/30 09:39:07;;;;;;;;;;;;;;;9.50;54.73;101911.25;5045654;28;19976;-77
2021/09/30 09:41:35;;;;;;;;;;;;;;;9.53;54.43;101909.56;5015161;28;19974;-75
2021/09/30 09:44:02;;;;;;;;;;;;;;;9.56;54.59;101905.38;5031291;28;19956;-77
2021/09/30 09:46:32;;;;;;;;;;;;;;;9.39;54.42;101901.38;5046097;28;19997;-77
2021/09/30 09:49:08;;;;;;;;;;;;;;;9.32;54.44;101901.22;5032422;28;19925;-76
2021/09/30 09:51:45;;;;;;;;;;;;;;;9.28;54.91;101911.44;5029799;28;20395;-76
2021/09/30 09:54:22;;;;;;;;;;;;;;;9.32;55.23;101906.41;5033559;28;19929;-75
2021/09/30 09:56:49;;;;;;;;;;;;;;;9.44;54.93;101902.41;5027237;28;19921;-76
2021/09/30 09:59:40;;;;;;;;;;;;;;;9.49;54.80;101906.88;5018986;28;19972;-77
2021/09/30 10:02:06;;;;;;;;;;;;;;;9.49;53.84;101903.41;5048872;28;19917;-74
2021/09/30 10:04:35;;;;;;;;;;;;;;;9.41;54.74;101907.50;5061163;28;19913;-77
2021/09/30 10:07:03;;;;;;;;;;;;;;;9.53;54.82;101907.88;5037855;28;19933;-76
2021/09/30 10:09:28;;;;;;;;;;;;;;;9.62;54.33;101913.31;5032062;28;20043;-77
2021/09/30 10:11:54;;;;;;;;;;;;;;;9.70;54.50;101910.06;5033961;28;20526;-76
2021/09/30 10:14:22;;;;;;;;;;;;;;;9.69;54.44;101908.31;5036064;28;19921;-74
2021/09/30 10:16:49;;;;;;;;;;;;;;;9.59;53.86;101909.75;5035498;28;19928;-76
2021/09/30 10:19:15;;;;;;;;;;;;;;;9.57;53.73;101908.84;5040417;28;19921;-77
2021/09/30 10:21:43;;;;;;;;;;;;;;;9.71;54.68;101909.22;5058343;28;19921;-74
2021/09/30 10:24:14;;;;;;;;;;;;;;;9.86;54.33;101901.84;5039731;28;20040;-75
2021/09/30 10:26:44;;;;;;;;;;;;;;;10.02;53.96;101915.31;5037847;28;19932;-77
2021/09/30 10:29:31;;;;;;;;;;;;;;;10.14;53.81;101906.94;5061053;28;20076;-75
2021/09/30 10:32:00;;;;;;;;;;;;;;;10.27;53.67;101908.13;5031028;28;19938;-77
2021/09/30 10:34:30;;;;;;;;;;;;;;;10.33;53.23;101910.88;5043921;28;20410;-76
2021/09/30 10:37:15;;;;;;;;;;;;;;;10.37;53.11;101912.72;5033569;28;20344;-77
2021/09/30 10:39:42;;;;;;;;;;;;;;;10.45;53.43;101912.97;5013234;28;19948;-75
2021/09/30 10:42:31;;;;;;;;;;;;;;;10.49;52.94;101910.47;5010597;28;19921;-77
2021/09/30 10:45:11;;;;;;;;;;;;;;;10.51;52.72;101919.19;5031044;28;20304;-75
2021/09/30 10:47:36;;;;;;;;;;;;;;;10.53;52.58;101916.66;5029247;28;19925;-75
2021/09/30 10:50:02;;;;;;;;;;;;;;;10.59;52.81;101910.72;5031144;28;19992;-77
2021/09/30 10:52:32;;;;;;;;;;;;;;;10.63;52.86;101917.75;5031474;28;20364;-76
2021/09/30 10:55:05;;;;;;;;;;;;;;;10.65;53.11;101922.16;5044225;28;19928;-76
2021/09/30 10:57:37;;;;;;;;;;;;;;;10.67;52.84;101912.66;5015351;28;19921;-76
2021/09/30 11:00:21;;;;;;;;;;;;;;;10.66;52.75;101912.63;5026990;28;20011;-75
2021/09/30 11:02:59;;;;;;;;;;;;;;;10.68;52.56;101918.75;5028628;28;19981;-75
2021/09/30 11:05:25;;;;;;;;;;;;;;;10.66;52.44;101913.50;5048005;28;19975;-77
2021/09/30 11:08:09;;;;;;;;;;;;;;;10.66;52.56;101913.50;5025707;28;19921;-74
2021/09/30 11:10:35;;;;;;;;;;;;;;;10.64;52.49;101912.56;5031479;28;19928;-77
2021/09/30 11:13:18;;;;;;;;;;;;;;;10.59;52.72;101921.13;5031707;28;20027;-75
2021/09/30 11:15:59;;;;;;;;;;;;;;;10.43;52.49;101922.44;5028189;28;19967;-77
2021/09/30 11:18:44;;;;;;;;;;;;;;;10.39;53.21;101926.69;5029405;28;20289;-75
2021/09/30 11:21:31;;;;;;;;;;;;;;;10.38;52.58;101920.59;5023263;28;20016;-75
2021/09/30 11:24:01;;;;;;;;;;;;;;;10.22;52.61;101916.72;5024302;28;19971;-76
2021/09/30 11:26:30;;;;;;;;;;;;;;;10.20;53.10;101918.38;5024676;28;20291;-76
2021/09/30 11:29:15;;;;;;;;;;;;;;;10.18;52.63;101912.25;5027002;28;20007;-75
2021/09/30 11:31:41;;;;;;;;;;;;;;;10.06;52.99;101915.41;5015215;28;20428;-77
2021/09/30 11:34:17;;;;;;;;;;;;;;;10.10;53.29;101916.38;5021471;28;19974;-77
2021/09/30 11:36:45;;;;;;;;;;;;;;;10.14;52.87;101907.81;5027683;28;19925;-75
2021/09/30 11:39:12;;;;;;;;;;;;;;;10.15;52.80;101912.19;5030113;28;19925;-76
2021/09/30 11:41:39;;;;;;;;;;;;;;;10.19;53.05;101907.91;5013645;28;19990;-75
2021/09/30 11:44:15;;;;;;;;;;;;;;;10.29;52.56;101909.03;5023785;28;20029;-76
2021/09/30 11:46:49;;;;;;;;;;;;;;;10.34;52.67;101907.44;5028606;28;20913;-74
2021/09/30 11:49:16;;;;;;;;;;;;;;;10.33;52.89;101905.69;5028367;28;19921;-77
2021/09/30 11:51:47;;;;;;;;;;;;;;;10.38;52.55;101901.50;5023587;28;20048;-77
2021/09/30 11:54:25;;;;;;;;;;;;;;;10.40;52.44;101900.72;5014160;28;20015;-75
2021/09/30 11:56:55;;;;;;;;;;;;;;;10.34;52.43;101900.53;5031099;28;20336;-75
2021/09/30 11:59:23;;;;;;;;;;;;;;;10.11;51.57;101902.53;5030993;28;19925;-75
2021/09/30 12:02:04;;;;;;;;;;;;;;;9.78;52.03;101904.25;5028253;28;19932;-76
2021/09/30 12:04:45;;;;;;;;;;;;;;;9.60;52.67;101862.13;5029875;28;20028;-77
2021/09/30 12:07:17;;;;;;;;;;;;;;;9.94;52.88;101900.34;5012748;28;19922;-75
2021/09/30 12:09:43;;;;;;;;;;;;;;;9.98;52.75;101890.91;5029077;28;19921;-77
2021/09/30 12:12:09;;;;;;;;;;;;;;;10.06;52.54;101902.41;5015754;28;19929;-75
2021/09/30 12:14:45;;;;;;;;;;;;;;;10.12;52.67;101896.47;5031000;28;19950;-77
2021/09/30 12:17:12;;;;;;;;;;;;;;;9.90;52.36;101893.31;5015188;28;20011;-77
2021/09/30 12:19:43;;;;;;;;;;;;;;;9.88;53.15;101894.97;5030012;28;19960;-77
2021/09/30 12:22:10;;;;;;;;;;;;;;;9.90;52.69;101900.25;5016275;28;19921;-77
2021/09/30 12:24:39;;;;;;;;;;;;;;;9.89;52.29;101895.88;5028657;28;19924;-78
2021/09/30 12:27:06;;;;;;;;;;;;;;;9.58;53.04;101890.69;5032027;28;19921;-76
2021/09/30 12:29:43;;;;;;;;;;;;;;;9.65;53.17;101897.81;5015049;28;19921;-77
2021/09/30 12:32:10;;;;;;;;;;;;;;;9.82;53.43;101897.41;5026854;28;19972;-76
2021/09/30 12:34:37;;;;;;;;;;;;;;;9.86;52.84;101883.66;5033956;28;19921;-77
2021/09/30 12:37:02;;;;;;;;;;;;;;;9.98;53.31;101890.91;5031247;28;19931;-75
2021/09/30 12:39:29;;;;;;;;;;;;;;;10.02;53.02;101887.56;5031038;28;19925;-75
2021/09/30 12:41:55;;;;;;;;;;;;;;;10.10;52.91;101890.34;5009595;28;20380;-76
2021/09/30 12:44:21;;;;;;;;;;;;;;;10.14;52.73;101891.34;5027512;28;19990;-78
2021/09/30 12:46:50;;;;;;;;;;;;;;;10.08;52.49;101892.03;5028328;28;19932;-74
2021/09/30 12:49:16;;;;;;;;;;;;;;;10.09;52.68;101880.78;5016291;28;20373;-76
2021/09/30 12:51:41;;;;;;;;;;;;;;;10.14;52.75;101883.53;5016869;28;19925;-75
2021/09/30 12:54:10;;;;;;;;;;;;;;;10.22;52.65;101882.00;5030853;28;19925;-75
2021/09/30 12:56:36;;;;;;;;;;;;;;;10.27;52.57;101879.50;5034508;28;19920;-75
2021/09/30 12:59:15;;;;;;;;;;;;;;;10.32;52.53;101888.31;5029662;28;19925;-75
2021/09/30 13:01:42;;;;;;;;;;;;;;;10.36;52.35;101877.13;5028705;28;20020;-76
2021/09/30 13:04:07;;;;;;;;;;;;;;;10.36;52.23;101875.44;5029141;28;19932;-76
2021/09/30 13:06:34;;;;;;;;;;;;;;;10.34;52.14;101874.50;5019290;28;19921;-75
2021/09/30 13:09:00;;;;;;;;;;;;;;;10.32;52.44;101886.59;5046409;28;19980;-78
2021/09/30 13:11:32;;;;;;;;;;;;;;;10.33;52.48;101882.25;5047674;28;19936;-75
2021/09/30 13:14:36;;;;;;;;;;;;;;;10.34;52.33;101881.41;5045325;28;19940;-77
2021/09/30 13:17:08;;;;;;;;;;;;;;;10.25;51.97;101876.88;4967572;28;19933;-75
2021/09/30 13:20:04;;;;;;;;;;;;;;;10.27;52.50;101872.59;5020626;28;20292;-76
2021/09/30 13:22:33;;;;;;;;;;;;;;;10.25;52.10;101869.97;5003629;28;20438;-77
2021/09/30 13:25:00;;;;;;;;;;;;;;;10.23;52.30;101868.13;5033031;28;19921;-79
2021/09/30 13:27:27;;;;;;;;;;;;;;;10.23;52.53;101868.13;5029376;28;19928;-75
2021/09/30 13:29:54;;;;;;;;;;;;;;;10.19;52.37;101866.28;5014129;28;19921;-76
2021/09/30 13:32:21;;;;;;;;;;;;;;;10.13;52.26;101869.63;5015752;28;19925;-76
2021/09/30 13:34:46;;;;;;;;;;;;;;;10.13;52.43;101860.97;5027011;28;19973;-76
2021/09/30 13:37:12;;;;;;;;;;;;;;;10.14;52.48;101860.97;5026566;28;19928;-77
2021/09/30 13:39:38;;;;;;;;;;;;;;;10.16;52.68;101859.31;5044138;28;19921;-76
2021/09/30 13:42:04;;;;;;;;;;;;;;;10.19;52.26;101855.88;5036689;28;19921;-76
2021/09/30 13:44:30;;;;;;;;;;;;;;;10.18;52.45;101852.44;5034987;28;20003;-77
2021/09/30 13:46:59;;;;;;;;;;;;;;;10.16;52.49;101854.09;5032106;28;19928;-77
2021/09/30 13:49:24;;;;;;;;;;;;;;;10.12;52.23;101854.00;5030233;28;20914;-76
2021/09/30 13:51:50;;;;;;;;;;;;;;;10.11;52.27;101847.91;5029480;28;19921;-74
2021/09/30 13:54:16;;;;;;;;;;;;;;;10.11;52.33;101845.28;5032912;28;19921;-75
2021/09/30 13:56:41;;;;;;;;;;;;;;;10.05;52.27;101845.13;5029730;28;20051;-77
2021/09/30 13:59:07;;;;;;;;;;;;;;;10.04;52.31;101843.41;5026422;28;20019;-75
2021/09/30 14:01:32;;;;;;;;;;;;;;;10.03;52.65;101841.63;5026410;28;20007;-75
2021/09/30 14:03:58;;;;;;;;;;;;;;;10.03;52.37;101847.69;5028701;28;19921;-75
2021/09/30 14:06:24;;;;;;;;;;;;;;;10.00;52.52;101842.41;5030432;28;20024;-77
2021/09/30 14:08:52;;;;;;;;;;;;;;;10.02;52.51;101845.94;5030482;28;20382;-76
2021/09/30 14:11:18;;;;;;;;;;;;;;;10.06;52.81;101847.78;5029304;28;20329;-76
2021/09/30 14:13:44;;;;;;;;;;;;;;;10.00;51.91;101841.53;5031057;28;19961;-76
2021/09/30 14:16:12;;;;;;;;;;;;;;;9.86;52.77;101842.03;5012883;28;19921;-76
2021/09/30 14:18:38;;;;;;;;;;;;;;;9.80;52.59;101849.72;5028245;28;19998;-75
2021/09/30 14:21:04;;;;;;;;;;;;;;;9.76;52.64;101834.84;5025441;28;19928;-75
2021/09/30 14:23:31;;;;;;;;;;;;;;;9.76;52.52;101838.31;5031545;28;19971;-75
2021/09/30 14:25:59;;;;;;;;;;;;;;;9.69;52.92;101833.81;5029462;28;19921;-77
2021/09/30 14:28:25;;;;;;;;;;;;;;;9.73;53.13;101832.16;5029443;28;19928;-78
2021/09/30 14:30:52;;;;;;;;;;;;;;;9.75;52.63;101838.28;5030370;28;20304;-78
2021/09/30 14:33:18;;;;;;;;;;;;;;;9.74;52.63;101834.78;5013772;28;19924;-75
2021/09/30 14:35:43;;;;;;;;;;;;;;;9.76;52.45;101827.06;5027907;28;19928;-77
2021/09/30 14:38:09;;;;;;;;;;;;;;;9.79;52.93;101827.13;5018693;28;19978;-74
2021/09/30 14:40:35;;;;;;;;;;;;;;;9.79;52.57;101822.81;5033637;28;20041;-80
2021/09/30 14:43:03;;;;;;;;;;;;;;;9.79;53.00;101834.94;5013246;28;19928;-75
2021/09/30 14:45:32;;;;;;;;;;;;;;;9.78;52.78;101830.59;5031194;28;19933;-76
2021/09/30 14:48:03;;;;;;;;;;;;;;;9.78;52.60;101825.38;5030554;28;19920;-77
2021/09/30 14:50:29;;;;;;;;;;;;;;;9.77;52.30;101821.88;5006185;28;19928;-75
2021/09/30 14:52:59;;;;;;;;;;;;;;;9.73;52.72;101819.16;5029962;28;19925;-80
2021/09/30 14:55:29;;;;;;;;;;;;;;;9.71;52.29;101819.09;5029882;28;19922;-77
2021/09/30 14:57:57;;;;;;;;;;;;;;;9.70;52.71;101825.19;5044060;28;19947;-77
2021/09/30 15:00:26;;;;;;;;;;;;;;;9.67;53.11;101826.78;5029329;28;19993;-78
2021/09/30 15:03:02;;;;;;;;;;;;;;;9.64;52.82;101827.59;5024549;28;19928;-78
2021/09/30 15:05:36;;;;;;;;;;;;;;;9.58;53.03;101825.72;5015127;28;19977;-76
2021/09/30 15:08:25;;;;;;;;;;;;;;;9.57;53.18;101830.84;4998821;28;19925;-76
2021/09/30 15:10:51;;;;;;;;;;;;;;;9.50;53.01;101835.00;5013681;28;20412;-77
2021/09/30 15:13:24;;;;;;;;;;;;;;;9.46;53.38;101830.56;5036328;28;19925;-75
2021/09/30 15:15:49;;;;;;;;;;;;;;;9.20;53.37;101791.72;5053891;28;19960;-76
2021/09/30 15:18:48;;;;;;;;;;;;;;;9.42;53.75;101831.31;5048886;28;19921;-77
2021/09/30 15:21:24;;;;;;;;;;;;;;;9.37;53.33;101840.72;5035604;28;19921;-77
2021/09/30 15:23:53;;;;;;;;;;;;;;;9.30;53.65;101832.72;5031311;28;20087;-77
2021/09/30 15:26:20;;;;;;;;;;;;;;;9.27;53.42;101832.63;5028245;28;20515;-78
2021/09/30 15:28:46;;;;;;;;;;;;;;;9.23;54.14;101838.56;5030058;28;19928;-76
2021/09/30 15:31:12;;;;;;;;;;;;;;;9.21;53.92;101844.56;5026278;28;19978;-77
2021/09/30 15:33:41;;;;;;;;;;;;;;;9.17;54.31;101838.38;5025505;28;19925;-77
2021/09/30 15:36:10;;;;;;;;;;;;;;;9.13;54.37;101836.56;5027630;28;19947;-78
2021/09/30 15:38:48;;;;;;;;;;;;;;;9.07;54.42;101842.44;5013932;28;19921;-76
2021/09/30 15:41:19;;;;;;;;;;;;;;;9.02;54.48;101837.09;5028888;28;20006;-79
2021/09/30 15:43:45;;;;;;;;;;;;;;;9.00;54.69;101837.91;5027278;28;20296;-76
2021/09/30 15:46:11;;;;;;;;;;;;;;;8.96;54.52;101830.84;5024255;28;19925;-77